Belcourt, North Dakota
Current Conditions -  °F | °C
As of 1:55 PM on Friday 24 Oct 2014 (Local Time) from K06D Reporting Station
Clear Clear  
Wind Chill: 64°   Ceiling: Unl
Heat Index: 64°   Visibility: 10mi
Dew Point: 32°   Wind: 25mph
Humidity: 30%   Direction: 270°W
Pressure: 29.75"   Gusts: 36mph
Location:  48.84°N, 99.75°W
Report Text: K06D 241855Z AUTO 27022G31KT 10SM CLR 18/00 A2975 RMK AO2
Loading
Personal Weather Stations






























Interactive Weather Map
Tropical Storm Tracking
New forecast layout! Learn more

10-Day Weather Forecast

Advertisements
Track Severe Weather on mobile